createdAt,value
2019-04-27T00:00:03.711Z,66.18
2019-04-27T00:01:05.255Z,66.49
2019-04-27T00:02:05.770Z,66.39
2019-04-27T00:03:06.108Z,66.39
2019-04-27T00:04:04.087Z,66.52
2019-04-27T00:05:03.332Z,66.62
2019-04-27T00:06:05.360Z,66.93
2019-04-27T00:07:04.290Z,67.24
2019-04-27T00:08:03.445Z,66.72
2019-04-27T00:09:03.633Z,66.59
2019-04-27T00:10:03.862Z,66.59
2019-04-27T00:11:08.388Z,66.63
2019-04-27T00:12:05.700Z,66.22
2019-04-27T00:13:06.068Z,66.12
2019-04-27T00:14:04.574Z,66.12
2019-04-27T00:15:04.757Z,66.25
2019-04-27T00:16:09.710Z,66.86
2019-04-27T00:17:07.054Z,67.51
2019-04-27T00:18:05.180Z,68.87
2019-04-27T00:19:05.354Z,69.75
2019-04-27T00:20:05.558Z,69.82
2019-04-27T00:21:05.721Z,70.03
2019-04-27T00:22:05.869Z,68.66
2019-04-27T00:23:06.036Z,69.07
2019-04-27T00:24:06.186Z,68.02
2019-04-27T00:25:06.584Z,67.30
2019-04-27T00:26:06.482Z,66.66
2019-04-27T00:27:06.638Z,66.59
2019-04-27T00:28:06.780Z,67.71
2019-04-27T00:29:06.943Z,67.13
2019-04-27T00:30:07.122Z,68.16
2019-04-27T00:31:07.285Z,67.78
2019-04-27T00:32:07.425Z,67.78
2019-04-27T00:33:07.592Z,69.31
2019-04-27T00:34:07.739Z,69.01
2019-04-27T00:35:07.911Z,68.70
2019-04-27T00:36:08.057Z,68.70
2019-04-27T00:37:08.200Z,68.70
2019-04-27T00:38:08.340Z,68.60
2019-04-27T00:39:08.484Z,69.31
2019-04-27T00:40:08.634Z,69.07
2019-04-27T00:41:08.802Z,67.30
2019-04-27T00:42:08.964Z,67.41
2019-04-27T00:43:09.085Z,66.49
2019-04-27T00:44:09.223Z,68.02
2019-04-27T00:45:09.364Z,67.61
2019-04-27T00:46:09.585Z,67.24
2019-04-27T00:47:09.730Z,66.36
2019-04-27T00:48:09.885Z,66.36
2019-04-27T00:49:10.044Z,66.42
2019-04-27T00:50:10.196Z,67.54
2019-04-27T00:51:10.585Z,68.05
2019-04-27T00:52:10.565Z,67.00
2019-04-27T00:53:10.704Z,67.00
2019-04-27T00:54:10.861Z,67.71
2019-04-27T00:55:11.012Z,68.57
2019-04-27T00:56:11.594Z,69.55
2019-04-27T00:57:12.970Z,68.84
2019-04-27T00:58:13.041Z,68.73
2019-04-27T00:59:13.643Z,67.57
2019-04-27T01:00:13.395Z,66.62
2019-04-27T01:01:12.704Z,65.91
2019-04-27T01:02:13.441Z,66.69
2019-04-27T01:03:13.956Z,66.59
2019-04-27T01:04:13.640Z,66.39
2019-04-27T01:05:13.093Z,66.59
2019-04-27T01:06:14.907Z,66.31
2019-04-27T01:07:14.343Z,66.01
2019-04-27T01:08:14.167Z,66.39
2019-04-27T01:09:13.446Z,67.30
2019-04-27T01:10:14.493Z,66.49
2019-04-27T01:11:14.093Z,66.08
2019-04-27T01:12:14.879Z,65.06
2019-04-27T01:13:14.118Z,65.37
2019-04-27T01:14:14.280Z,66.25
2019-04-27T01:15:14.407Z,66.75
2019-04-27T01:16:17.352Z,66.99
2019-04-27T01:17:18.834Z,66.55
2019-04-27T01:18:15.625Z,66.31
2019-04-27T01:19:16.187Z,65.37
2019-04-27T01:20:15.311Z,64.65
2019-04-27T01:21:15.495Z,63.78
2019-04-27T01:22:15.616Z,63.78
2019-04-27T01:23:15.773Z,63.78
2019-04-27T01:24:15.950Z,64.69
2019-04-27T01:25:16.128Z,64.83
2019-04-27T01:26:16.281Z,65.37
2019-04-27T01:27:16.418Z,66.21
2019-04-27T01:28:16.562Z,66.86
2019-04-27T01:29:16.699Z,67.37
2019-04-27T01:30:16.850Z,68.12
2019-04-27T01:31:16.975Z,68.73
2019-04-27T01:32:18.638Z,68.55
2019-04-27T01:33:19.694Z,69.41
2019-04-27T01:34:19.130Z,69.65
2019-04-27T01:35:18.693Z,70.87
2019-04-27T01:36:19.053Z,70.98
2019-04-27T01:37:19.563Z,71.18
2019-04-27T01:38:20.088Z,70.98
2019-04-27T01:39:18.956Z,70.98
2019-04-27T01:40:19.517Z,70.77
2019-04-27T01:41:19.233Z,71.08
2019-04-27T01:42:19.882Z,71.04
2019-04-27T01:43:19.003Z,69.79
2019-04-27T01:44:19.476Z,68.35
2019-04-27T01:45:20.306Z,69.71
2019-04-27T01:46:19.668Z,69.07
2019-04-27T01:47:21.596Z,68.42
2019-04-27T01:48:23.871Z,68.12
2019-04-27T01:49:21.976Z,68.12
2019-04-27T01:50:20.188Z,67.71
2019-04-27T01:51:21.057Z,68.73
2019-04-27T01:52:21.600Z,68.42
2019-04-27T01:53:20.728Z,67.57
2019-04-27T01:54:20.912Z,67.16
2019-04-27T01:55:21.078Z,67.24
2019-04-27T01:56:21.240Z,67.50
2019-04-27T01:57:22.092Z,68.15
2019-04-27T01:58:21.596Z,67.78
2019-04-27T01:59:21.750Z,67.60
2019-04-27T02:00:21.913Z,66.78
2019-04-27T02:01:22.086Z,67.71
2019-04-27T02:02:23.097Z,67.60
2019-04-27T02:03:22.473Z,66.35
2019-04-27T02:04:22.613Z,66.66
2019-04-27T02:05:23.106Z,66.35
2019-04-27T02:06:22.910Z,66.45
2019-04-27T02:07:23.089Z,66.58
2019-04-27T02:08:23.271Z,66.48
2019-04-27T02:09:23.405Z,66.89
2019-04-27T02:10:23.601Z,66.66
2019-04-27T02:11:23.774Z,66.35
2019-04-27T02:12:23.931Z,65.94
2019-04-27T02:13:24.062Z,66.28
2019-04-27T02:14:24.228Z,66.04
2019-04-27T02:15:24.383Z,66.17
2019-04-27T02:16:24.536Z,66.69
2019-04-27T02:17:24.670Z,66.45
2019-04-27T02:18:34.675Z,66.45
2019-04-27T02:19:27.033Z,66.78
2019-04-27T02:20:26.099Z,66.45
2019-04-27T02:21:25.473Z,65.84
2019-04-27T02:22:25.624Z,65.87
2019-04-27T02:23:25.740Z,66.38
2019-04-27T02:24:26.588Z,66.69
2019-04-27T02:25:26.198Z,66.69
2019-04-27T02:26:26.604Z,67.43
2019-04-27T02:27:26.440Z,67.60
2019-04-27T02:28:26.570Z,67.23
2019-04-27T02:29:26.693Z,67.43
2019-04-27T02:30:26.827Z,66.61
2019-04-27T02:31:29.493Z,68.08
2019-04-27T02:32:29.071Z,67.87
2019-04-27T02:33:29.917Z,68.28
2019-04-27T02:34:30.187Z,68.28
2019-04-27T02:35:29.972Z,68.01
2019-04-27T02:36:30.344Z,68.21
2019-04-27T02:37:30.426Z,69.03
2019-04-27T02:38:30.512Z,69.17
2019-04-27T02:39:29.799Z,68.65
2019-04-27T02:40:30.534Z,68.73
2019-04-27T02:41:29.867Z,68.52
2019-04-27T02:42:29.883Z,69.13
2019-04-27T02:43:29.624Z,68.62
2019-04-27T02:44:30.308Z,68.83
2019-04-27T02:45:30.433Z,67.67
2019-04-27T02:46:31.577Z,67.43
2019-04-27T02:47:30.604Z,68.08
2019-04-27T02:48:30.015Z,68.93
2019-04-27T02:49:30.520Z,68.52
2019-04-27T02:50:31.221Z,69.13
2019-04-27T02:51:30.353Z,69.10
2019-04-27T02:52:30.487Z,68.62
2019-04-27T02:53:30.627Z,69.24
2019-04-27T02:54:30.772Z,69.75
2019-04-27T02:55:30.903Z,69.57
2019-04-27T02:56:32.078Z,69.89
2019-04-27T02:57:31.177Z,69.13
2019-04-27T02:58:31.722Z,69.54
2019-04-27T02:59:32.525Z,68.49
2019-04-27T03:00:31.953Z,69.24
2019-04-27T03:01:32.781Z,69.24
2019-04-27T03:02:32.015Z,69.00
2019-04-27T03:03:32.117Z,68.90
2019-04-27T03:04:33.373Z,69.31
2019-04-27T03:05:32.484Z,68.79
2019-04-27T03:06:32.618Z,68.46
2019-04-27T03:07:32.762Z,69.03
2019-04-27T03:08:32.936Z,69.34
2019-04-27T03:09:33.117Z,69.03
2019-04-27T03:10:33.259Z,69.71
2019-04-27T03:11:34.110Z,70.06
2019-04-27T03:12:33.630Z,70.06
2019-04-27T03:13:33.783Z,69.65
2019-04-27T03:14:36.381Z,69.65
2019-04-27T03:15:35.170Z,69.65
2019-04-27T03:16:34.304Z,71.11
2019-04-27T03:17:34.454Z,71.01
2019-04-27T03:18:35.603Z,71.01
2019-04-27T03:19:34.756Z,70.91
2019-04-27T03:20:34.917Z,71.01
2019-04-27T03:21:35.068Z,70.91
2019-04-27T03:22:35.215Z,70.91
2019-04-27T03:23:35.353Z,71.18
2019-04-27T03:24:35.516Z,69.85
2019-04-27T03:25:35.639Z,69.71
2019-04-27T03:26:35.792Z,69.85
2019-04-27T03:27:35.931Z,69.54
2019-04-27T03:28:36.076Z,69.54
2019-04-27T03:29:36.197Z,69.65
2019-04-27T03:30:36.697Z,69.75
2019-04-27T03:31:37.478Z,69.10
2019-04-27T03:32:37.702Z,69.17
2019-04-27T03:33:36.942Z,68.35
2019-04-27T03:34:41.483Z,68.46
2019-04-27T03:35:38.575Z,68.97
2019-04-27T03:36:39.546Z,69.54
2019-04-27T03:37:40.421Z,69.54
2019-04-27T03:38:39.668Z,69.78
2019-04-27T03:39:39.700Z,71.39
2019-04-27T03:40:40.334Z,69.44
2019-04-27T03:41:41.185Z,69.75
2019-04-27T03:42:40.358Z,69.41
2019-04-27T03:43:40.369Z,69.00
2019-04-27T03:44:40.062Z,68.15
2019-04-27T03:45:39.951Z,69.65
2019-04-27T03:46:40.347Z,70.03
2019-04-27T03:47:40.663Z,69.61
2019-04-27T03:48:41.024Z,68.90
2019-04-27T03:49:41.668Z,69.31
2019-04-27T03:50:42.974Z,69.71
2019-04-27T03:51:41.323Z,69.75
2019-04-27T03:52:40.481Z,71.39
2019-04-27T03:53:40.626Z,69.65
2019-04-27T03:54:40.828Z,69.71
2019-04-27T03:55:42.780Z,68.90
2019-04-27T03:56:43.100Z,69.82
2019-04-27T03:57:41.324Z,69.10
2019-04-27T03:58:41.617Z,69.20
2019-04-27T03:59:41.677Z,68.90
2019-04-27T04:00:41.858Z,69.71
2019-04-27T04:01:42.048Z,68.55
2019-04-27T04:02:42.208Z,68.55
2019-04-27T04:03:42.399Z,68.79
2019-04-27T04:04:42.540Z,69.82
2019-04-27T04:05:42.679Z,69.71
2019-04-27T04:06:42.838Z,68.25
2019-04-27T04:07:42.958Z,68.59
2019-04-27T04:08:43.095Z,68.97
2019-04-27T04:09:43.222Z,69.17
2019-04-27T04:10:43.355Z,69.61
2019-04-27T04:11:43.640Z,69.00
2019-04-27T04:12:43.775Z,69.75
2019-04-27T04:13:43.941Z,70.87
2019-04-27T04:14:44.099Z,71.32
2019-04-27T04:15:44.247Z,71.18
2019-04-27T04:16:44.441Z,70.98
2019-04-27T04:17:44.617Z,69.41
2019-04-27T04:18:45.607Z,69.48
2019-04-27T04:19:54.441Z,69.48
2019-04-27T04:20:47.213Z,70.03
2019-04-27T04:21:46.441Z,69.71
2019-04-27T04:22:45.586Z,70.43
2019-04-27T04:23:45.749Z,71.04
2019-04-27T04:24:45.876Z,71.36
2019-04-27T04:25:46.011Z,69.79
2019-04-27T04:26:47.106Z,68.97
2019-04-27T04:27:46.424Z,68.32
2019-04-27T04:28:47.114Z,68.73
2019-04-27T04:29:49.250Z,69.14
2019-04-27T04:30:46.965Z,67.47
2019-04-27T04:31:47.097Z,68.90
2019-04-27T04:32:51.678Z,66.69
2019-04-27T04:33:49.237Z,66.08
2019-04-27T04:34:50.101Z,66.28
2019-04-27T04:35:49.646Z,66.72
2019-04-27T04:36:50.362Z,67.47
2019-04-27T04:37:52.577Z,67.98
2019-04-27T04:38:50.460Z,68.49
2019-04-27T04:39:53.099Z,68.19
2019-04-27T04:40:50.619Z,67.65
2019-04-27T04:41:50.954Z,67.44
2019-04-27T04:42:50.307Z,66.59
2019-04-27T04:43:49.420Z,66.83
2019-04-27T04:44:50.206Z,67.13
2019-04-27T04:45:50.707Z,67.54
2019-04-27T04:46:50.279Z,67.21
2019-04-27T04:47:51.008Z,67.00
2019-04-27T04:48:50.437Z,65.54
2019-04-27T04:50:07.557Z,65.41
2019-04-27T04:50:52.598Z,64.46
2019-04-27T04:51:50.816Z,64.46
2019-04-27T04:52:50.956Z,63.82
2019-04-27T04:53:51.905Z,62.46
2019-04-27T04:54:52.313Z,61.79
2019-04-27T04:55:51.417Z,61.00
2019-04-27T04:56:51.670Z,61.08
2019-04-27T04:57:51.821Z,60.54
2019-04-27T04:58:52.022Z,58.35
2019-04-27T04:59:52.214Z,59.32
2019-04-27T05:00:52.356Z,60.34
2019-04-27T05:01:52.479Z,60.47
2019-04-27T05:02:52.721Z,59.75
2019-04-27T05:03:52.846Z,59.63
2019-04-27T05:04:53.096Z,58.65
2019-04-27T05:05:53.224Z,57.51
2019-04-27T05:06:53.355Z,57.74
2019-04-27T05:07:53.516Z,57.64
2019-04-27T05:08:53.672Z,57.81
2019-04-27T05:09:54.123Z,56.87
2019-04-27T05:10:54.609Z,56.34
2019-04-27T05:11:54.225Z,55.91
2019-04-27T05:12:54.375Z,56.34
2019-04-27T05:13:54.507Z,57.00
2019-04-27T05:14:54.774Z,57.87
2019-04-27T05:15:54.879Z,60.50
2019-04-27T05:16:55.018Z,60.03
2019-04-27T05:17:55.138Z,58.29
2019-04-27T05:18:55.278Z,57.46
2019-04-27T05:19:55.547Z,55.91
2019-04-27T05:20:55.669Z,56.01
2019-04-27T05:21:55.915Z,55.30
2019-04-27T05:22:56.040Z,55.27
2019-04-27T05:23:56.292Z,55.91
2019-04-27T05:24:56.399Z,55.40
2019-04-27T05:25:56.657Z,57.00
2019-04-27T05:26:56.798Z,58.17
2019-04-27T05:27:56.927Z,58.99
2019-04-27T05:28:59.125Z,59.30
2019-04-27T05:29:57.325Z,59.70
2019-04-27T05:30:58.689Z,60.57
2019-04-27T05:31:59.192Z,60.68
2019-04-27T05:32:58.574Z,61.52
2019-04-27T05:33:59.366Z,62.46
2019-04-27T05:34:59.514Z,62.13
2019-04-27T05:35:59.152Z,62.74
2019-04-27T05:37:01.134Z,63.10
2019-04-27T05:38:00.898Z,63.56
2019-04-27T05:39:00.910Z,61.36
2019-04-27T05:39:59.003Z,59.16
2019-04-27T05:40:59.638Z,58.40
2019-04-27T05:41:59.676Z,57.46
2019-04-27T05:43:00.421Z,56.95
2019-04-27T05:44:03.281Z,56.95
2019-04-27T05:45:00.791Z,54.94
2019-04-27T05:46:01.123Z,53.78
2019-04-27T05:47:01.093Z,52.84
2019-04-27T05:48:00.697Z,52.69
2019-04-27T05:49:06.311Z,56.13
2019-04-27T05:50:02.697Z,57.59
2019-04-27T05:51:02.066Z,58.22
2019-04-27T05:52:02.029Z,58.45
2019-04-27T05:53:01.145Z,58.73
2019-04-27T05:54:01.285Z,59.06
2019-04-27T05:55:01.630Z,58.69
2019-04-27T05:56:01.779Z,59.47
2019-04-27T05:57:01.945Z,58.42
2019-04-27T05:58:02.059Z,58.22
2019-04-27T05:59:02.316Z,58.58
2019-04-27T06:00:03.463Z,56.18
2019-04-27T06:01:02.685Z,56.16
2019-04-27T06:02:03.846Z,54.41
2019-04-27T06:03:02.940Z,55.37
2019-04-27T06:04:03.138Z,56.09
2019-04-27T06:05:03.289Z,57.12
2019-04-27T06:06:03.442Z,57.18
2019-04-27T06:07:03.643Z,57.99
2019-04-27T06:08:03.862Z,58.33
2019-04-27T06:09:04.004Z,58.20
2019-04-27T06:10:04.144Z,57.08
2019-04-27T06:11:04.272Z,57.76
2019-04-27T06:12:04.432Z,57.53
2019-04-27T06:13:04.619Z,56.52
2019-04-27T06:14:04.785Z,56.72
2019-04-27T06:15:04.949Z,57.51
2019-04-27T06:16:05.086Z,58.22
2019-04-27T06:17:05.273Z,57.92
2019-04-27T06:18:05.644Z,58.33
2019-04-27T06:19:05.561Z,59.16
2019-04-27T06:20:06.636Z,59.06
2019-04-27T06:21:05.881Z,60.85
2019-04-27T06:22:06.015Z,60.85
2019-04-27T06:23:08.863Z,61.87
2019-04-27T06:24:06.307Z,61.87
2019-04-27T06:25:06.499Z,60.03
2019-04-27T06:26:09.197Z,61.74
2019-04-27T06:27:09.401Z,61.22
2019-04-27T06:28:07.078Z,61.87
2019-04-27T06:29:07.210Z,61.13
2019-04-27T06:30:09.222Z,61.36
2019-04-27T06:31:08.810Z,61.79
2019-04-27T06:32:09.020Z,62.20
2019-04-27T06:33:09.419Z,62.71
2019-04-27T06:34:09.794Z,62.94
2019-04-27T06:35:12.088Z,62.71
2019-04-27T06:36:10.015Z,63.35
2019-04-27T06:37:09.533Z,63.35
2019-04-27T06:38:11.562Z,63.28
2019-04-27T06:39:09.781Z,63.58
2019-04-27T06:40:11.136Z,63.68
2019-04-27T06:41:10.138Z,64.06
2019-04-27T06:42:18.158Z,63.56
2019-04-27T06:43:12.091Z,63.42
2019-04-27T06:44:11.494Z,63.12
2019-04-27T06:45:11.448Z,63.65
2019-04-27T06:46:10.578Z,64.50
2019-04-27T06:47:10.730Z,64.60
2019-04-27T06:48:10.895Z,64.94
2019-04-27T06:49:11.383Z,65.25
2019-04-27T06:50:11.296Z,65.86
2019-04-27T06:51:11.480Z,66.20
2019-04-27T06:52:11.631Z,63.65
2019-04-27T06:53:11.764Z,64.87
2019-04-27T06:54:12.915Z,63.65
2019-04-27T06:55:12.164Z,64.17
2019-04-27T06:56:12.309Z,63.65
2019-04-27T06:57:13.136Z,64.78
2019-04-27T06:58:12.617Z,63.96
2019-04-27T06:59:12.758Z,63.86
2019-04-27T07:00:12.897Z,63.62
2019-04-27T07:01:13.035Z,63.22
2019-04-27T07:02:13.191Z,63.19
2019-04-27T07:03:13.331Z,62.96
2019-04-27T07:04:13.483Z,62.78
2019-04-27T07:05:13.666Z,62.65
2019-04-27T07:06:13.849Z,62.45
2019-04-27T07:07:15.642Z,62.48
2019-04-27T07:08:14.136Z,62.85
2019-04-27T07:09:14.294Z,62.85
2019-04-27T07:10:14.446Z,61.94
2019-04-27T07:11:14.651Z,62.55
2019-04-27T07:12:14.803Z,62.45
2019-04-27T07:13:14.956Z,62.04
2019-04-27T07:14:15.086Z,62.55
2019-04-27T07:15:15.612Z,63.32
2019-04-27T07:16:16.425Z,64.00
2019-04-27T07:17:15.683Z,63.09
2019-04-27T07:18:15.814Z,63.09
2019-04-27T07:19:15.973Z,63.29
2019-04-27T07:20:16.126Z,62.88
2019-04-27T07:21:20.097Z,62.88
2019-04-27T07:22:20.023Z,63.73
2019-04-27T07:23:16.650Z,64.78
2019-04-27T07:24:16.809Z,65.08
2019-04-27T07:25:18.899Z,66.44
2019-04-27T07:26:17.182Z,68.48
2019-04-27T07:27:19.193Z,69.39
2019-04-27T07:28:19.032Z,70.54
2019-04-27T07:29:19.477Z,71.91
2019-04-27T07:30:19.128Z,72.31
2019-04-27T07:31:19.350Z,75.88
2019-04-27T07:32:19.417Z,75.92
2019-04-27T07:33:19.449Z,75.10
2019-04-27T07:34:19.065Z,74.52
2019-04-27T07:35:19.809Z,76.70
2019-04-27T07:36:18.943Z,75.07
2019-04-27T07:37:20.159Z,76.40
2019-04-27T07:38:41.045Z,76.81
2019-04-27T07:39:19.540Z,78.34
2019-04-27T07:40:19.720Z,78.34
2019-04-27T07:41:20.650Z,77.76
2019-04-27T07:42:21.901Z,79.50
2019-04-27T07:43:22.139Z,79.80
2019-04-27T07:44:20.374Z,79.29
2019-04-27T07:45:21.554Z,81.51
2019-04-27T07:46:20.673Z,79.57
2019-04-27T07:47:21.669Z,79.57
2019-04-27T07:48:21.078Z,79.05
2019-04-27T07:49:21.261Z,79.87
2019-04-27T07:50:21.439Z,82.93
2019-04-27T07:51:31.500Z,77.01
2019-04-27T07:52:23.798Z,79.87
2019-04-27T07:53:21.895Z,79.46
2019-04-27T07:54:22.061Z,77.72
2019-04-27T07:55:22.253Z,80.01
2019-04-27T07:56:22.423Z,80.32
2019-04-27T07:57:22.575Z,79.70
2019-04-27T07:58:22.760Z,82.56
2019-04-27T07:59:23.662Z,81.68
2019-04-27T08:00:23.643Z,79.60
2019-04-27T08:01:24.161Z,81.65
2019-04-27T08:02:23.406Z,79.77
2019-04-27T08:03:23.579Z,79.36
2019-04-27T08:04:23.758Z,80.32
2019-04-27T08:05:23.930Z,81.60
2019-04-27T08:06:24.089Z,79.77
2019-04-27T08:07:24.260Z,80.28
2019-04-27T08:08:24.661Z,79.77
2019-04-27T08:09:24.559Z,78.68
2019-04-27T08:10:24.723Z,79.91
2019-04-27T08:11:24.898Z,80.42
2019-04-27T08:12:25.088Z,81.65
2019-04-27T08:13:25.241Z,78.41
2019-04-27T08:14:25.360Z,81.99
2019-04-27T08:15:25.537Z,80.46
2019-04-27T08:16:25.678Z,80.25
2019-04-27T08:17:28.333Z,81.31
2019-04-27T08:18:26.086Z,82.09
2019-04-27T08:19:27.152Z,84.91
2019-04-27T08:20:26.450Z,79.39
2019-04-27T08:21:26.606Z,80.32
2019-04-27T08:22:26.746Z,80.32
2019-04-27T08:23:26.925Z,79.70
2019-04-27T08:24:29.378Z,81.51
2019-04-27T08:25:28.685Z,80.52
2019-04-27T08:26:28.690Z,80.42
2019-04-27T08:27:29.436Z,80.42
2019-04-27T08:28:28.760Z,79.19
2019-04-27T08:29:29.941Z,80.28
2019-04-27T08:30:29.423Z,77.83
2019-04-27T08:31:28.725Z,79.50
2019-04-27T08:32:29.565Z,79.25
2019-04-27T08:33:29.037Z,78.44
2019-04-27T08:34:29.876Z,79.60
2019-04-27T08:35:32.424Z,79.87
2019-04-27T08:36:30.110Z,78.38
2019-04-27T08:37:29.229Z,77.76
2019-04-27T08:38:29.396Z,80.01
2019-04-27T08:39:29.647Z,78.64
2019-04-27T08:40:30.751Z,79.91
2019-04-27T08:41:29.889Z,80.07
2019-04-27T08:42:30.053Z,79.36
2019-04-27T08:43:31.157Z,77.93
2019-04-27T08:44:31.821Z,78.44
2019-04-27T08:45:32.181Z,79.05
2019-04-27T08:46:30.829Z,77.93
2019-04-27T08:47:30.957Z,78.13
2019-04-27T08:48:34.720Z,79.60
2019-04-27T08:49:33.333Z,80.32
2019-04-27T08:50:31.531Z,81.38
2019-04-27T08:51:31.675Z,81.44
2019-04-27T08:52:31.821Z,81.60
2019-04-27T08:53:31.940Z,79.36
2019-04-27T08:54:32.175Z,80.28
2019-04-27T08:55:32.358Z,80.79
2019-04-27T08:56:32.492Z,82.42
2019-04-27T08:57:32.631Z,82.39
2019-04-27T08:58:32.751Z,79.90
2019-04-27T08:59:32.879Z,79.45
2019-04-27T09:00:33.025Z,77.55
2019-04-27T09:01:33.191Z,79.57
2019-04-27T09:02:41.558Z,79.87
2019-04-27T09:03:35.446Z,81.20
2019-04-27T09:04:33.661Z,81.40
2019-04-27T09:05:33.803Z,79.93
2019-04-27T09:06:33.938Z,81.37
2019-04-27T09:07:34.093Z,81.26
2019-04-27T09:08:35.165Z,81.87
2019-04-27T09:09:34.392Z,81.40
2019-04-27T09:10:34.553Z,81.67
2019-04-27T09:11:35.665Z,79.22
2019-04-27T09:12:34.930Z,82.22
2019-04-27T09:13:35.064Z,83.14
2019-04-27T09:14:36.159Z,82.26
2019-04-27T09:15:35.412Z,81.81
2019-04-27T09:16:35.660Z,81.40
2019-04-27T09:17:35.830Z,81.37
2019-04-27T09:18:36.010Z,81.37
2019-04-27T09:19:36.163Z,81.73
2019-04-27T09:20:36.303Z,80.91
2019-04-27T09:21:36.446Z,79.69
2019-04-27T09:22:36.604Z,80.75
2019-04-27T09:23:38.839Z,80.44
2019-04-27T09:24:36.975Z,81.98
2019-04-27T09:25:37.111Z,82.35
2019-04-27T09:26:39.040Z,81.87
2019-04-27T09:27:39.075Z,81.32
2019-04-27T09:28:38.866Z,81.23
2019-04-27T09:29:39.533Z,83.30
2019-04-27T09:30:39.388Z,81.53
2019-04-27T09:31:39.668Z,79.63
2019-04-27T09:32:38.411Z,79.73
2019-04-27T09:33:39.528Z,82.63
2019-04-27T09:34:38.659Z,82.24
2019-04-27T09:35:38.791Z,82.14
2019-04-27T09:36:38.924Z,82.00
2019-04-27T09:37:39.071Z,81.45
2019-04-27T09:38:39.231Z,81.25
2019-04-27T09:39:39.381Z,80.84
2019-04-27T09:40:39.543Z,78.60
2019-04-27T09:41:39.722Z,78.12
2019-04-27T09:42:39.852Z,81.43
2019-04-27T09:43:40.669Z,82.98
2019-04-27T09:44:40.291Z,81.70
2019-04-27T09:45:40.455Z,80.54
2019-04-27T09:46:40.642Z,79.55
2019-04-27T09:47:41.677Z,80.16
2019-04-27T09:48:40.919Z,79.80
2019-04-27T09:49:41.066Z,80.07
2019-04-27T09:50:41.675Z,79.14
2019-04-27T09:51:42.166Z,80.20
2019-04-27T09:52:41.675Z,81.32
2019-04-27T09:53:41.821Z,82.10
2019-04-27T09:54:41.964Z,81.39
2019-04-27T09:55:42.119Z,83.18
2019-04-27T09:56:42.286Z,82.37
2019-04-27T09:57:42.447Z,77.95
2019-04-27T09:58:43.164Z,79.11
2019-04-27T09:59:42.815Z,80.23
2019-04-27T10:00:42.984Z,81.11
2019-04-27T10:01:43.134Z,80.19
2019-04-27T10:02:43.303Z,78.36
2019-04-27T10:03:43.439Z,81.41
2019-04-27T10:04:43.600Z,81.11
2019-04-27T10:05:43.759Z,78.56
2019-04-27T10:06:43.912Z,78.46
2019-04-27T10:07:45.724Z,78.66
2019-04-27T10:08:44.269Z,79.79
2019-04-27T10:09:45.465Z,79.38
2019-04-27T10:10:45.973Z,81.48
2019-04-27T10:11:44.702Z,76.79
2019-04-27T10:12:46.487Z,78.56
2019-04-27T10:13:46.545Z,81.82
2019-04-27T10:14:47.657Z,79.93
2019-04-27T10:15:46.470Z,80.33
2019-04-27T10:16:46.918Z,80.07
2019-04-27T10:17:45.784Z,82.21
2019-04-27T10:18:45.970Z,82.71
2019-04-27T10:19:46.665Z,82.07
2019-04-27T10:20:58.723Z,81.96
2019-04-27T10:21:48.539Z,81.41
2019-04-27T10:22:46.829Z,82.70
2019-04-27T10:23:47.238Z,79.48
2019-04-27T10:24:48.169Z,78.56
2019-04-27T10:25:47.397Z,78.26
2019-04-27T10:26:47.557Z,78.36
2019-04-27T10:27:47.719Z,79.14
2019-04-27T10:28:47.911Z,79.14
2019-04-27T10:29:48.663Z,77.85
2019-04-27T10:30:48.190Z,77.95
2019-04-27T10:31:48.397Z,79.82
2019-04-27T10:32:48.601Z,80.27
2019-04-27T10:33:48.759Z,79.66
2019-04-27T10:34:48.898Z,80.47
2019-04-27T10:35:49.676Z,79.11
2019-04-27T10:36:50.149Z,77.98
2019-04-27T10:37:50.399Z,81.35
2019-04-27T10:38:49.684Z,81.66
2019-04-27T10:39:49.833Z,83.25
2019-04-27T10:40:50.689Z,81.07
2019-04-27T10:41:50.193Z,80.05
2019-04-27T10:42:50.346Z,81.79
2019-04-27T10:43:50.529Z,78.08
2019-04-27T10:44:50.663Z,78.12
2019-04-27T10:45:50.810Z,79.64
2019-04-27T10:46:50.935Z,81.13
2019-04-27T10:47:51.059Z,79.41
2019-04-27T10:48:51.262Z,78.69
2019-04-27T10:49:51.401Z,78.53
2019-04-27T10:50:51.540Z,81.24
2019-04-27T10:51:52.198Z,78.49
2019-04-27T10:52:53.691Z,78.31
2019-04-27T10:53:53.050Z,79.70
2019-04-27T10:54:52.671Z,74.68
2019-04-27T10:55:52.462Z,75.63
2019-04-27T10:56:52.605Z,75.16
2019-04-27T10:57:52.751Z,79.50
2019-04-27T10:58:52.927Z,77.43
2019-04-27T10:59:53.188Z,76.92
2019-04-27T11:00:54.172Z,73.29
2019-04-27T11:01:55.937Z,74.85
2019-04-27T11:02:53.631Z,75.56
2019-04-27T11:03:55.499Z,73.06
2019-04-27T11:04:54.016Z,75.84
2019-04-27T11:05:54.197Z,76.75
2019-04-27T11:06:54.342Z,76.62
2019-04-27T11:07:56.378Z,76.86
2019-04-27T11:08:56.112Z,79.71
2019-04-27T11:09:54.995Z,78.66
2019-04-27T11:10:56.396Z,76.90
2019-04-27T11:11:56.610Z,81.98
2019-04-27T11:12:56.077Z,84.91
2019-04-27T11:14:00.704Z,84.44
2019-04-27T11:14:55.981Z,85.67
2019-04-27T11:15:56.112Z,88.17
2019-04-27T11:16:56.286Z,87.24
2019-04-27T11:17:56.441Z,86.38
2019-04-27T11:18:58.702Z,85.67
2019-04-27T11:19:56.868Z,83.62
2019-04-27T11:20:57.192Z,84.65
2019-04-27T11:21:57.224Z,86.14
2019-04-27T11:23:07.205Z,83.38
2019-04-27T11:24:00.174Z,82.67
2019-04-27T11:24:57.643Z,82.26
2019-04-27T11:25:57.824Z,80.69
2019-04-27T11:26:57.960Z,82.46
2019-04-27T11:27:58.112Z,80.42
2019-04-27T11:28:58.272Z,81.24
2019-04-27T11:29:58.416Z,82.26
2019-04-27T11:30:58.693Z,82.15
2019-04-27T11:31:58.735Z,82.53
2019-04-27T11:32:59.358Z,82.42
2019-04-27T11:34:00.686Z,79.97
2019-04-27T11:34:59.330Z,81.54
2019-04-27T11:35:59.477Z,82.36
2019-04-27T11:36:59.617Z,80.48
2019-04-27T11:37:59.777Z,81.51
2019-04-27T11:38:59.945Z,79.36
2019-04-27T11:40:00.144Z,79.63
2019-04-27T11:41:00.303Z,77.93
2019-04-27T11:42:01.183Z,77.31
2019-04-27T11:43:01.178Z,76.94
2019-04-27T11:44:01.688Z,80.01
2019-04-27T11:45:01.050Z,80.21
2019-04-27T11:46:01.221Z,80.01
2019-04-27T11:47:01.362Z,78.88
2019-04-27T11:48:02.188Z,81.51
2019-04-27T11:49:01.695Z,80.38
2019-04-27T11:50:01.857Z,80.00
2019-04-27T11:51:01.973Z,79.25
2019-04-27T11:52:02.105Z,76.87
2019-04-27T11:53:03.175Z,76.90
2019-04-27T11:54:02.441Z,77.82
2019-04-27T11:55:02.592Z,74.66
2019-04-27T11:56:02.719Z,77.11
2019-04-27T11:57:02.927Z,74.66
2019-04-27T11:58:03.079Z,75.13
2019-04-27T11:59:03.236Z,77.75
2019-04-27T12:00:03.428Z,75.00
2019-04-27T12:01:03.608Z,76.06
2019-04-27T12:02:03.850Z,76.84
2019-04-27T12:03:04.038Z,75.20
2019-04-27T12:04:05.791Z,75.61
2019-04-27T12:05:07.611Z,75.20
2019-04-27T12:06:04.619Z,76.32
2019-04-27T12:07:06.460Z,75.31
2019-04-27T12:08:06.285Z,73.57
2019-04-27T12:09:06.151Z,76.32
2019-04-27T12:10:05.729Z,75.27
2019-04-27T12:11:06.425Z,74.45
2019-04-27T12:12:14.941Z,73.94
2019-04-27T12:13:07.871Z,75.54
2019-04-27T12:14:06.997Z,73.97
2019-04-27T12:15:06.686Z,71.67
2019-04-27T12:16:06.391Z,75.10
2019-04-27T12:17:06.576Z,70.51
2019-04-27T12:18:08.816Z,73.23
2019-04-27T12:19:07.952Z,72.75
2019-04-27T12:20:07.088Z,72.24
2019-04-27T12:21:07.259Z,72.89
2019-04-27T12:22:07.406Z,74.11
2019-04-27T12:23:07.562Z,71.87
2019-04-27T12:24:07.732Z,71.15
2019-04-27T12:25:07.901Z,75.13
2019-04-27T12:26:08.201Z,76.76
2019-04-27T12:27:08.236Z,73.91
2019-04-27T12:28:09.181Z,75.16
2019-04-27T12:29:08.524Z,72.07
2019-04-27T12:30:08.703Z,74.35
2019-04-27T12:31:09.218Z,75.89
2019-04-27T12:32:10.043Z,75.99
2019-04-27T12:33:09.273Z,77.15
2019-04-27T12:34:09.434Z,79.77
2019-04-27T12:35:09.586Z,76.90
2019-04-27T12:36:10.682Z,76.74
2019-04-27T12:37:09.906Z,77.90
2019-04-27T12:38:11.043Z,78.14
2019-04-27T12:39:10.276Z,81.41
2019-04-27T12:40:10.430Z,80.22
2019-04-27T12:41:10.580Z,80.83
2019-04-27T12:42:11.206Z,81.56
2019-04-27T12:43:10.960Z,81.56
2019-04-27T12:44:11.123Z,81.86
2019-04-27T12:45:11.333Z,82.10
2019-04-27T12:46:11.484Z,82.10
2019-04-27T12:47:11.624Z,82.68
2019-04-27T12:48:11.769Z,81.70
2019-04-27T12:49:13.688Z,82.00
2019-04-27T12:50:12.041Z,82.00
2019-04-27T12:51:12.209Z,81.90
2019-04-27T12:52:12.327Z,81.59
2019-04-27T12:53:12.480Z,81.94
2019-04-27T12:54:12.620Z,80.60